This is the latest recevied weather packets stored in our database for station/object N7BTW-13. If no packets are shown the sender has not sent any weather packets the latest 10 day(s).
| Time | Temp. | Humidity | Pressure | Rain* | Wind** | Luminosity | Snow |
|---|---|---|---|---|---|---|---|
| 1787448607 | 23.89° C | 58% | - | 0 mm | - | - | - |
| 1787448006 | 24.44° C | 55% | - | 0 mm | - | - | - |
| 1787447407 | 24.44° C | 54% | - | 0 mm | - | - | - |
| 1787446807 | 25° C | 53% | - | 0 mm | - | - | - |
| 1787446209 | 25° C | 52% | - | 0 mm | - | - | - |
| 1787445612 | 25° C | 52% | - | 0 mm | - | - | - |
| 1787445007 | 26.11° C | 51% | - | 0 mm | - | - | - |
| 1787444407 | 25.56° C | 52% | - | 0 mm | - | - | - |
| 1787443808 | 25.56° C | 51% | - | 0 mm | - | - | - |
| 1787443209 | 25.56° C | 50% | - | 0 mm | - | - | - |
| 1787442609 | 26.11° C | 50% | - | 0 mm | - | - | - |
| 1787442007 | 27.22° C | 47% | - | 0 mm | - | - | - |
| 1787441407 | 26.67° C | 49% | - | 0 mm | - | - | - |
| 1787440808 | 27.22° C | 47% | - | 0 mm | - | - | - |
| 1787440209 | 27.22° C | 49% | - | 0 mm | - | - | - |
| 1787439610 | 26.67° C | 49% | - | 0 mm | - | - | - |
| 1787439007 | 26.67° C | 50% | - | 0 mm | - | - | - |
| 1787438408 | 27.22° C | 49% | - | 0 mm | - | - | - |
| 1787437807 | 27.22° C | 49% | - | 0 mm | - | - | - |
| 1787437209 | 27.22° C | 51% | - | 0 mm | - | - | - |
| 1787436608 | 25.56° C | 53% | - | 0 mm | - | - | - |
| 1787436007 | 26.67° C | 51% | - | 0 mm | - | - | - |
| 1787435407 | 26.11° C | 53% | - | 0 mm | - | - | - |
| 1787434807 | 23.89° C | 58% | - | 0 mm | - | - | - |
| 1787434206 | 23.33° C | 59% | - | 0 mm | - | - | - |
* Rain latest hour (hover to see other rain measurements)
** Current wind speed in m/s (hover to see current wind gust speed)